createdAt,value
2018-07-21T00:01:31.473Z,5.37
2018-07-21T00:03:59.771Z,4.33
2018-07-21T00:06:27.992Z,2.40
2018-07-21T00:08:56.337Z,2.67
2018-07-21T00:11:24.574Z,3.83
2018-07-21T00:13:52.838Z,2.50
2018-07-21T00:16:21.286Z,4.00
2018-07-21T00:18:49.570Z,3.13
2018-07-21T00:21:17.797Z,2.50
2018-07-21T00:23:45.991Z,3.50
2018-07-21T00:26:14.213Z,3.17
2018-07-21T00:28:42.491Z,3.10
2018-07-21T00:31:10.739Z,4.33
2018-07-21T00:33:38.934Z,3.20
2018-07-21T00:36:07.161Z,2.30
2018-07-21T00:38:35.427Z,2.77
2018-07-21T00:41:03.687Z,2.50
2018-07-21T00:43:31.891Z,3.33
2018-07-21T00:46:00.080Z,2.53
2018-07-21T00:48:28.289Z,4.10
2018-07-21T00:50:56.479Z,2.77
2018-07-21T00:53:28.732Z,3.27
2018-07-21T00:55:56.906Z,2.27
2018-07-21T00:58:25.146Z,2.10
2018-07-21T01:00:53.370Z,2.03
2018-07-21T01:03:21.647Z,4.40
2018-07-21T01:05:49.861Z,4.30
2018-07-21T01:08:18.090Z,5.37
2018-07-21T01:10:46.457Z,3.07
2018-07-21T01:13:14.726Z,2.90
2018-07-21T01:15:43.027Z,2.77
2018-07-21T01:18:11.222Z,2.33
2018-07-21T01:20:39.454Z,2.90
2018-07-21T01:23:07.687Z,4.83
2018-07-21T01:25:35.919Z,3.30
2018-07-21T01:28:04.128Z,3.17
2018-07-21T01:30:32.367Z,2.70
2018-07-21T01:33:00.565Z,2.60
2018-07-21T01:35:28.820Z,4.73
2018-07-21T01:37:57.014Z,3.80
2018-07-21T01:40:25.522Z,2.50
2018-07-21T01:42:53.844Z,3.17
2018-07-21T01:45:22.102Z,4.63
2018-07-21T01:47:50.400Z,3.40
2018-07-21T01:50:18.665Z,5.77
2018-07-21T01:52:46.925Z,5.00
2018-07-21T01:55:15.139Z,3.43
2018-07-21T01:57:43.341Z,3.30
2018-07-21T02:00:11.574Z,2.50
2018-07-21T02:02:39.762Z,4.57
2018-07-21T02:05:07.963Z,3.23
2018-07-21T02:07:36.504Z,4.10
2018-07-21T02:10:04.755Z,6.10
2018-07-21T02:12:32.975Z,3.50
2018-07-21T02:15:01.272Z,4.83
2018-07-21T02:17:29.537Z,3.53
2018-07-21T02:19:57.758Z,3.40
2018-07-21T02:22:26.017Z,3.10
2018-07-21T02:24:54.225Z,3.20
2018-07-21T02:27:23.387Z,3.13
2018-07-21T02:29:51.709Z,2.67
2018-07-21T02:32:20.406Z,2.47
2018-07-21T02:34:48.804Z,2.70
2018-07-21T02:37:17.089Z,2.20
2018-07-21T02:39:45.409Z,4.30
2018-07-21T02:42:13.815Z,2.47
2018-07-21T02:44:42.159Z,5.03
2018-07-21T02:47:10.462Z,3.77
2018-07-21T02:49:38.804Z,5.00
2018-07-21T02:52:06.752Z,2.10
2018-07-21T02:54:35.284Z,5.40
2018-07-21T02:57:03.540Z,2.93
2018-07-21T02:59:32.278Z,2.37
2018-07-21T03:02:00.586Z,3.90
2018-07-21T03:04:28.916Z,2.87
2018-07-21T03:06:57.348Z,3.07
2018-07-21T03:09:25.795Z,4.10
2018-07-21T03:11:54.039Z,2.87
2018-07-21T03:14:22.319Z,3.27
2018-07-21T03:16:50.643Z,2.70
2018-07-21T03:19:18.886Z,3.03
2018-07-21T03:21:47.176Z,3.83
2018-07-21T03:24:15.499Z,3.53
2018-07-21T03:26:43.945Z,4.67
2018-07-21T03:29:12.388Z,2.80
2018-07-21T03:31:40.931Z,3.03
2018-07-21T03:34:09.342Z,3.87
2018-07-21T03:36:37.631Z,3.70
2018-07-21T03:39:09.271Z,6.77
2018-07-21T03:41:37.590Z,4.13
2018-07-21T03:44:05.941Z,3.17
2018-07-21T03:46:34.423Z,5.63
2018-07-21T03:49:02.794Z,9.53
2018-07-21T03:51:31.178Z,3.70
2018-07-21T03:53:59.509Z,4.27
2018-07-21T03:56:27.910Z,3.70
2018-07-21T03:58:56.131Z,2.53
2018-07-21T04:01:24.390Z,4.40
2018-07-21T04:03:52.663Z,2.50
2018-07-21T04:06:20.930Z,2.40
2018-07-21T04:08:49.196Z,3.70
2018-07-21T04:11:17.415Z,3.03
2018-07-21T04:13:45.650Z,4.60
2018-07-21T04:16:13.875Z,5.83
2018-07-21T04:18:42.183Z,4.27
2018-07-21T04:21:10.426Z,4.57
2018-07-21T04:23:38.707Z,5.10
2018-07-21T04:26:06.938Z,3.63
2018-07-21T04:28:35.327Z,3.83
2018-07-21T04:31:04.162Z,2.60
2018-07-21T04:33:32.386Z,7.03
2018-07-21T04:36:00.687Z,2.97
2018-07-21T04:38:28.913Z,3.90
2018-07-21T04:40:57.141Z,3.47
2018-07-21T04:43:25.376Z,2.97
2018-07-21T04:45:53.597Z,3.67
2018-07-21T04:48:21.859Z,3.67
2018-07-21T04:50:50.139Z,6.00
2018-07-21T04:53:18.390Z,2.97
2018-07-21T04:55:46.727Z,5.20
2018-07-21T04:58:15.051Z,2.97
2018-07-21T05:00:43.338Z,4.37
2018-07-21T05:03:11.492Z,3.43
2018-07-21T05:05:39.706Z,4.53
2018-07-21T05:08:07.945Z,5.30
2018-07-21T05:10:36.466Z,3.33
2018-07-21T05:13:05.010Z,3.30
2018-07-21T05:15:33.205Z,4.00
2018-07-21T05:18:01.423Z,3.37
2018-07-21T05:20:36.450Z,4.57
2018-07-21T05:23:04.703Z,3.90
2018-07-21T05:25:32.999Z,3.77
2018-07-21T05:28:01.224Z,3.43
2018-07-21T05:30:30.058Z,4.37
2018-07-21T05:32:58.315Z,4.53
2018-07-21T05:35:26.543Z,3.70
2018-07-21T05:37:54.777Z,4.07
2018-07-21T05:40:23.018Z,4.43
2018-07-21T05:42:51.399Z,3.23
2018-07-21T05:45:19.585Z,4.87
2018-07-21T05:47:47.878Z,6.27
2018-07-21T05:50:16.150Z,4.83
2018-07-21T05:52:44.402Z,7.53
2018-07-21T05:55:12.674Z,3.80
2018-07-21T05:57:40.905Z,3.80
2018-07-21T06:00:11.452Z,4.00
2018-07-21T06:02:39.736Z,6.33
2018-07-21T06:05:08.428Z,6.00
2018-07-21T06:07:36.659Z,4.57
2018-07-21T06:10:05.121Z,4.50
2018-07-21T06:12:34.386Z,6.90
2018-07-21T06:15:02.597Z,8.63
2018-07-21T06:17:30.858Z,3.30
2018-07-21T06:19:59.336Z,4.00
2018-07-21T06:22:27.567Z,5.30
2018-07-21T06:24:55.795Z,5.93
2018-07-21T06:27:24.018Z,6.53
2018-07-21T06:29:52.313Z,4.60
2018-07-21T06:32:20.511Z,4.60
2018-07-21T06:34:48.767Z,5.40
2018-07-21T06:37:17.634Z,5.87
2018-07-21T06:39:45.944Z,7.70
2018-07-21T06:42:14.154Z,6.77
2018-07-21T06:44:42.415Z,5.20
2018-07-21T06:47:10.791Z,3.90
2018-07-21T06:49:39.042Z,5.57
2018-07-21T06:52:07.370Z,9.13
2018-07-21T06:54:35.688Z,8.17
2018-07-21T06:57:03.894Z,6.73
2018-07-21T06:59:32.466Z,5.60
2018-07-21T07:02:00.762Z,6.00
2018-07-21T07:04:35.701Z,5.10
2018-07-21T07:07:03.938Z,5.20
2018-07-21T07:09:32.330Z,7.30
2018-07-21T07:12:00.591Z,4.83
2018-07-21T07:14:28.950Z,4.47
2018-07-21T07:16:57.197Z,6.30
2018-07-21T07:19:25.457Z,5.10
2018-07-21T07:21:53.739Z,5.13
2018-07-21T07:24:22.114Z,6.10
2018-07-21T07:26:50.323Z,4.67
2018-07-21T07:29:18.983Z,6.40
2018-07-21T07:31:47.243Z,6.53
2018-07-21T07:34:15.576Z,6.80
2018-07-21T07:36:44.787Z,6.30
2018-07-21T07:39:13.154Z,5.90
2018-07-21T07:41:41.456Z,3.70
2018-07-21T07:44:10.225Z,7.67
2018-07-21T07:46:38.501Z,9.13
2018-07-21T07:49:07.087Z,7.83
2018-07-21T07:51:35.586Z,8.20
2018-07-21T07:54:04.471Z,8.80
2018-07-21T07:56:33.043Z,9.37
2018-07-21T07:59:01.485Z,7.50
2018-07-21T08:01:30.143Z,9.03
2018-07-21T08:03:59.710Z,9.00
2018-07-21T08:06:28.670Z,8.03
2018-07-21T08:08:57.506Z,7.03
2018-07-21T08:11:25.926Z,7.57
2018-07-21T08:13:54.553Z,7.27
2018-07-21T08:16:22.849Z,7.23
2018-07-21T08:18:51.187Z,6.77
2018-07-21T08:21:19.439Z,6.53
2018-07-21T08:23:48.266Z,6.10
2018-07-21T08:26:16.557Z,5.95
2018-07-21T08:28:44.787Z,6.72
2018-07-21T08:31:13.097Z,7.35
2018-07-21T08:33:41.126Z,6.92
2018-07-21T08:36:09.492Z,46.37
2018-07-21T08:38:37.771Z,542.08
2018-07-21T08:41:06.572Z,1027.95
2018-07-21T08:43:34.838Z,1457.03
2018-07-21T08:46:03.114Z,1961.28
2018-07-21T08:48:31.378Z,1999.90
2018-07-21T08:50:59.643Z,1999.90
2018-07-21T08:53:27.856Z,1999.90
2018-07-21T08:55:56.103Z,1999.90
2018-07-21T08:58:24.310Z,1999.90
2018-07-21T09:00:52.554Z,1999.90
2018-07-21T09:03:20.779Z,1999.90
2018-07-21T09:05:49.079Z,1999.90
2018-07-21T09:08:17.290Z,1999.90
2018-07-21T09:10:45.624Z,1999.90
2018-07-21T09:13:13.932Z,1999.90
2018-07-21T09:15:42.116Z,1999.90
2018-07-21T09:18:10.448Z,1999.90
2018-07-21T09:20:38.730Z,1999.90
2018-07-21T09:23:07.159Z,1999.90
2018-07-21T09:25:35.403Z,1999.90
2018-07-21T09:28:03.950Z,1999.90
2018-07-21T09:30:32.169Z,1999.90
2018-07-21T09:33:00.569Z,1999.90
2018-07-21T09:35:28.819Z,1999.90
2018-07-21T09:37:57.074Z,1916.28
2018-07-21T09:40:25.428Z,1491.25
2018-07-21T09:42:53.749Z,1317.90
2018-07-21T09:45:21.998Z,1243.45
2018-07-21T09:47:50.296Z,1191.25
2018-07-21T09:50:19.155Z,1133.55
2018-07-21T09:52:47.384Z,1082.85
2018-07-21T09:55:16.503Z,1092.33
2018-07-21T09:57:44.806Z,1082.50
2018-07-21T10:00:17.346Z,1062.27
2018-07-21T10:02:45.664Z,1037.97
2018-07-21T10:05:13.948Z,1036.33
2018-07-21T10:07:43.296Z,990.57
2018-07-21T10:10:11.659Z,969.13
2018-07-21T10:12:39.877Z,920.93
2018-07-21T10:15:08.210Z,894.40
2018-07-21T10:17:36.466Z,807.73
2018-07-21T10:20:04.891Z,738.40
2018-07-21T10:22:33.178Z,744.23
2018-07-21T10:25:06.742Z,769.53
2018-07-21T10:27:40.322Z,731.73
2018-07-21T10:30:08.677Z,757.60
2018-07-21T10:32:36.845Z,765.50
2018-07-21T10:35:05.094Z,742.50
2018-07-21T10:37:33.436Z,727.63
2018-07-21T10:40:04.430Z,675.00
2018-07-21T10:42:32.767Z,657.63
2018-07-21T10:45:01.014Z,588.13
2018-07-21T10:47:29.366Z,591.83
2018-07-21T10:49:57.596Z,550.67
2018-07-21T10:52:25.826Z,514.70
2018-07-21T10:54:57.120Z,479.20
2018-07-21T10:57:25.809Z,473.77
2018-07-21T10:59:54.051Z,482.63
2018-07-21T11:02:22.320Z,551.70
2018-07-21T11:04:50.602Z,550.67
2018-07-21T11:07:18.926Z,596.20
2018-07-21T11:09:47.227Z,621.33
2018-07-21T11:12:15.518Z,670.30
2018-07-21T11:14:43.833Z,726.43
2018-07-21T11:17:12.058Z,708.17
2018-07-21T11:19:40.303Z,733.90
2018-07-21T11:22:09.697Z,739.20
2018-07-21T11:24:37.927Z,651.23
2018-07-21T11:27:06.166Z,599.90
2018-07-21T11:29:34.397Z,506.50
2018-07-21T11:32:02.658Z,475.33
2018-07-21T11:34:30.956Z,559.17
2018-07-21T11:36:59.210Z,643.50
2018-07-21T11:39:27.442Z,700.17
2018-07-21T11:41:55.762Z,676.80
2018-07-21T11:44:24.037Z,697.63
2018-07-21T11:46:52.276Z,764.80
2018-07-21T11:49:20.624Z,804.00
2018-07-21T11:51:48.916Z,822.78
2018-07-21T11:54:17.210Z,844.75
2018-07-21T11:56:45.486Z,887.55
2018-07-21T11:59:13.809Z,898.23
2018-07-21T12:01:42.052Z,935.00
2018-07-21T12:04:10.247Z,967.98
2018-07-21T12:06:38.460Z,1029.50
2018-07-21T12:09:07.972Z,1025.40
2018-07-21T12:11:36.413Z,1036.33
2018-07-21T12:14:04.475Z,1037.20
2018-07-21T12:16:32.714Z,1008.40
2018-07-21T12:19:01.024Z,946.45
2018-07-21T12:21:29.280Z,1010.20
2018-07-21T12:23:57.688Z,980.35
2018-07-21T12:26:26.048Z,967.13
2018-07-21T12:28:54.283Z,978.65
2018-07-21T12:31:22.940Z,938.55
2018-07-21T12:33:51.261Z,938.52
2018-07-21T12:36:19.560Z,928.37
2018-07-21T12:38:48.071Z,937.90
2018-07-21T12:41:16.358Z,954.57
2018-07-21T12:43:44.639Z,965.87
2018-07-21T12:46:12.890Z,992.07
2018-07-21T12:48:41.138Z,992.77
2018-07-21T12:51:09.548Z,1012.23
2018-07-21T12:53:37.832Z,1022.43
2018-07-21T12:56:06.065Z,1032.38
2018-07-21T12:58:34.841Z,1048.90
2018-07-21T13:01:03.102Z,1072.75
2018-07-21T13:03:32.122Z,1069.38
2018-07-21T13:06:00.348Z,1129.08
2018-07-21T13:08:28.637Z,1108.05
2018-07-21T13:10:57.342Z,1111.05
2018-07-21T13:13:25.620Z,1143.22
2018-07-21T13:15:53.863Z,1174.80
2018-07-21T13:18:22.114Z,1185.75
2018-07-21T13:20:50.353Z,1187.30
2018-07-21T13:23:18.582Z,1194.80
2018-07-21T13:25:46.870Z,1199.75
2018-07-21T13:28:15.087Z,1165.93
2018-07-21T13:30:43.429Z,1120.25
2018-07-21T13:33:11.678Z,1126.98
2018-07-21T13:35:39.910Z,1101.90
2018-07-21T13:38:08.161Z,1112.38
2018-07-21T13:40:36.535Z,1081.23
2018-07-21T13:43:04.861Z,1068.07
2018-07-21T13:45:33.135Z,1066.00
2018-07-21T13:48:01.371Z,1042.33
2018-07-21T13:50:29.670Z,1021.57
2018-07-21T13:52:57.924Z,988.07
2018-07-21T13:55:26.210Z,938.63
2018-07-21T13:57:54.423Z,959.80
2018-07-21T14:00:22.718Z,983.75
2018-07-21T14:02:50.924Z,969.37
2018-07-21T14:05:19.359Z,996.50
2018-07-21T14:07:47.641Z,994.08
2018-07-21T14:10:15.953Z,984.67
2018-07-21T14:12:44.349Z,1004.70
2018-07-21T14:15:12.768Z,990.23
2018-07-21T14:17:42.018Z,978.40
2018-07-21T14:20:10.234Z,992.23
2018-07-21T14:22:38.461Z,992.50
2018-07-21T14:27:41.401Z,931.00
2018-07-21T14:30:11.556Z,918.13
2018-07-21T14:32:39.819Z,903.27
2018-07-21T14:35:08.510Z,915.60
2018-07-21T14:37:36.730Z,959.73
2018-07-21T14:40:05.305Z,974.37
2018-07-21T14:42:33.614Z,967.77
2018-07-21T14:45:01.875Z,1001.00
2018-07-21T14:47:30.146Z,1002.87
2018-07-21T14:49:58.382Z,1030.63
2018-07-21T14:52:26.658Z,996.67
2018-07-21T14:54:55.314Z,1019.37
2018-07-21T14:57:23.577Z,1022.75
2018-07-21T14:59:51.800Z,1040.17
2018-07-21T15:02:20.114Z,1001.63
2018-07-21T15:04:48.337Z,1015.33
2018-07-21T15:07:16.571Z,1009.77
2018-07-21T15:09:45.099Z,996.33
2018-07-21T15:12:13.346Z,1025.47
2018-07-21T15:14:41.807Z,1018.57
2018-07-21T15:17:10.388Z,1012.70
2018-07-21T15:19:38.645Z,1022.50
2018-07-21T15:22:07.548Z,1042.37
2018-07-21T15:24:35.793Z,1048.95
2018-07-21T15:27:04.073Z,1054.25
2018-07-21T15:29:32.598Z,1081.93
2018-07-21T15:32:00.967Z,1076.83
2018-07-21T15:34:29.200Z,1072.45
2018-07-21T15:36:57.501Z,1073.85
2018-07-21T15:39:25.735Z,1060.08
2018-07-21T15:41:54.019Z,1088.45
2018-07-21T15:44:22.246Z,1112.30
2018-07-21T15:46:50.519Z,1098.75
2018-07-21T15:49:19.323Z,1108.70
2018-07-21T15:51:47.542Z,1116.18
2018-07-21T15:54:15.835Z,1121.97
2018-07-21T15:56:44.083Z,1104.90
2018-07-21T15:59:12.348Z,1096.98
2018-07-21T16:01:40.603Z,966.05
2018-07-21T16:04:08.854Z,856.40
2018-07-21T16:06:37.246Z,730.05
2018-07-21T16:09:07.916Z,547.43
2018-07-21T16:11:36.266Z,307.57
2018-07-21T16:14:04.577Z,133.13
2018-07-21T16:16:32.814Z,56.73
2018-07-21T16:19:01.085Z,23.37
2018-07-21T16:21:29.305Z,7.77
2018-07-21T16:23:57.677Z,6.23
2018-07-21T16:26:25.883Z,5.37
2018-07-21T16:28:54.097Z,4.77
2018-07-21T16:31:22.306Z,4.93
2018-07-21T16:33:52.039Z,5.10
2018-07-21T16:36:20.278Z,5.67
2018-07-21T16:38:48.526Z,4.93
2018-07-21T16:41:16.835Z,5.13
2018-07-21T16:43:45.098Z,6.33
2018-07-21T16:46:13.294Z,5.90
2018-07-21T16:48:41.546Z,5.83
2018-07-21T16:51:09.739Z,6.90
2018-07-21T16:53:37.949Z,8.13
2018-07-21T16:56:06.144Z,5.17
2018-07-21T16:58:34.386Z,5.80
2018-07-21T17:01:02.645Z,6.80
2018-07-21T17:03:30.847Z,7.07
2018-07-21T17:05:59.044Z,6.83
2018-07-21T17:08:27.285Z,5.47
2018-07-21T17:10:55.499Z,6.07
2018-07-21T17:13:23.762Z,6.23
2018-07-21T17:15:52.041Z,5.03
2018-07-21T17:18:20.261Z,7.97
2018-07-21T17:20:48.498Z,6.73
2018-07-21T17:23:16.778Z,6.23
2018-07-21T17:25:44.967Z,5.77
2018-07-21T17:28:13.194Z,9.73
2018-07-21T17:30:41.451Z,5.80
2018-07-21T17:33:09.658Z,7.90
2018-07-21T17:35:37.875Z,8.03
2018-07-21T17:38:06.103Z,8.17
2018-07-21T17:40:34.340Z,5.67
2018-07-21T17:43:02.604Z,6.30
2018-07-21T17:45:30.793Z,4.87
2018-07-21T17:47:59.034Z,6.40
2018-07-21T17:50:27.234Z,6.17
2018-07-21T17:52:55.591Z,8.23
2018-07-21T17:55:23.851Z,6.70
2018-07-21T17:57:52.122Z,9.43
2018-07-21T18:00:20.388Z,6.47
2018-07-21T18:02:48.674Z,7.83
2018-07-21T18:05:16.900Z,4.80
2018-07-21T18:07:45.177Z,7.80
2018-07-21T18:10:13.387Z,7.07
2018-07-21T18:12:41.682Z,6.97
2018-07-21T18:15:09.925Z,7.13
2018-07-21T18:17:38.183Z,7.60
2018-07-21T18:20:06.398Z,9.90
2018-07-21T18:22:34.606Z,6.90
2018-07-21T18:25:02.860Z,6.47
2018-07-21T18:27:31.103Z,9.53
2018-07-21T18:29:59.201Z,6.93
2018-07-21T18:32:27.439Z,10.27
2018-07-21T18:34:56.018Z,6.30
2018-07-21T18:37:24.579Z,11.03
2018-07-21T18:39:52.971Z,9.80
2018-07-21T18:42:21.624Z,11.07
2018-07-21T18:44:49.942Z,10.23
2018-07-21T18:47:18.161Z,9.10
2018-07-21T18:49:46.418Z,8.20
2018-07-21T18:52:14.714Z,7.77
2018-07-21T18:54:43.984Z,11.17
2018-07-21T18:57:12.182Z,7.63
2018-07-21T18:59:40.504Z,16.90
2018-07-21T19:02:08.848Z,8.33
2018-07-21T19:04:37.165Z,11.17
2018-07-21T19:07:05.986Z,9.13
2018-07-21T19:09:34.250Z,8.30
2018-07-21T19:12:08.072Z,7.87
2018-07-21T19:14:37.291Z,7.20
2018-07-21T19:17:05.587Z,8.00
2018-07-21T19:19:39.034Z,7.20
2018-07-21T19:22:07.319Z,8.07
2018-07-21T19:24:35.607Z,7.00
2018-07-21T19:27:37.746Z,6.03
2018-07-21T19:30:06.412Z,12.20
2018-07-21T19:32:40.508Z,9.87
2018-07-21T19:35:09.098Z,10.13
2018-07-21T19:37:42.812Z,7.67
2018-07-21T19:40:11.103Z,8.87
2018-07-21T19:42:39.278Z,9.67
2018-07-21T19:45:07.691Z,7.30
2018-07-21T19:47:36.100Z,7.10
2018-07-21T19:50:04.526Z,6.77
2018-07-21T19:52:34.028Z,6.97
2018-07-21T19:55:03.523Z,9.23
2018-07-21T19:57:31.758Z,6.73
2018-07-21T20:00:00.093Z,9.00
2018-07-21T20:02:28.314Z,12.30
2018-07-21T20:04:56.537Z,9.40
2018-07-21T20:07:24.800Z,11.00
2018-07-21T20:09:52.998Z,7.23
2018-07-21T20:12:21.522Z,9.00
2018-07-21T20:14:49.817Z,8.17
2018-07-21T20:17:18.095Z,9.60
2018-07-21T20:19:46.285Z,7.50
2018-07-21T20:22:14.735Z,8.07
2018-07-21T20:24:43.057Z,9.07
2018-07-21T20:27:11.417Z,10.20
2018-07-21T20:29:39.711Z,10.23
2018-07-21T20:32:08.068Z,10.13
2018-07-21T20:34:36.370Z,7.23
2018-07-21T20:37:04.935Z,8.73
2018-07-21T20:39:33.486Z,10.93
2018-07-21T20:42:01.851Z,10.37
2018-07-21T20:44:30.103Z,9.37
2018-07-21T20:46:58.424Z,10.23
2018-07-21T20:49:26.725Z,11.27
2018-07-21T20:51:55.099Z,9.83
2018-07-21T20:54:23.319Z,9.33
2018-07-21T20:56:52.327Z,12.17
2018-07-21T20:59:20.551Z,8.53
2018-07-21T21:01:48.778Z,8.40
2018-07-21T21:04:17.050Z,8.83
2018-07-21T21:06:45.295Z,8.20
2018-07-21T21:09:13.368Z,9.00
2018-07-21T21:11:41.473Z,8.07
2018-07-21T21:14:09.816Z,9.07
2018-07-21T21:16:38.092Z,7.17
2018-07-21T21:19:06.377Z,6.90
2018-07-21T21:21:34.656Z,8.13
2018-07-21T21:24:02.938Z,5.93
2018-07-21T21:26:31.183Z,7.07
2018-07-21T21:28:59.409Z,5.73
2018-07-21T21:31:27.661Z,7.73
2018-07-21T21:33:55.946Z,6.77
2018-07-21T21:36:24.312Z,11.53
2018-07-21T21:38:52.522Z,8.20
2018-07-21T21:41:21.226Z,8.20
2018-07-21T21:43:49.547Z,7.77
2018-07-21T21:46:17.867Z,5.17
2018-07-21T21:48:46.101Z,7.83
2018-07-21T21:51:14.306Z,6.80
2018-07-21T21:53:42.506Z,8.37
2018-07-21T21:56:10.799Z,6.40
2018-07-21T21:58:39.074Z,6.77
2018-07-21T22:01:08.992Z,5.50
2018-07-21T22:03:37.316Z,8.53
2018-07-21T22:06:05.850Z,5.13
2018-07-21T22:08:34.247Z,6.60
2018-07-21T22:11:02.979Z,5.20
2018-07-21T22:13:31.285Z,5.57
2018-07-21T22:15:59.998Z,8.37
2018-07-21T22:18:29.252Z,7.90
2018-07-21T22:20:57.446Z,6.13
2018-07-21T22:23:25.626Z,7.13
2018-07-21T22:25:53.865Z,4.40
2018-07-21T22:28:22.102Z,7.27
2018-07-21T22:30:50.399Z,5.50
2018-07-21T22:33:18.611Z,4.23
2018-07-21T22:35:46.847Z,5.00
2018-07-21T22:38:15.070Z,6.00
2018-07-21T22:40:43.295Z,4.87
2018-07-21T22:43:11.574Z,3.57
2018-07-21T22:45:39.782Z,8.70
2018-07-21T22:48:08.024Z,5.40
2018-07-21T22:50:36.221Z,6.03
2018-07-21T22:53:04.512Z,4.20
2018-07-21T22:55:32.724Z,5.97
2018-07-21T22:58:00.988Z,4.60
2018-07-21T23:00:29.276Z,11.13
2018-07-21T23:02:57.606Z,4.90
2018-07-21T23:05:25.899Z,5.17
2018-07-21T23:07:54.157Z,4.43
2018-07-21T23:10:22.642Z,6.13
2018-07-21T23:12:51.329Z,3.77
2018-07-21T23:15:19.984Z,5.77
2018-07-21T23:17:48.210Z,4.93
2018-07-21T23:20:16.574Z,4.23
2018-07-21T23:22:44.835Z,5.87
2018-07-21T23:25:13.062Z,4.77
2018-07-21T23:27:41.341Z,3.97
2018-07-21T23:30:09.608Z,4.13
2018-07-21T23:32:37.823Z,4.47
2018-07-21T23:35:06.032Z,5.37
2018-07-21T23:37:34.248Z,5.03
2018-07-21T23:40:02.528Z,6.20
2018-07-21T23:42:31.303Z,6.10
2018-07-21T23:45:00.545Z,6.07
2018-07-21T23:47:28.770Z,3.57
2018-07-21T23:49:56.988Z,5.17
2018-07-21T23:52:25.210Z,4.47
2018-07-21T23:54:53.462Z,4.13
2018-07-21T23:57:21.883Z,5.47
2018-07-21T23:59:50.138Z,3.77
